sensor_id;sensor_type;location;lat;lon;timestamp;temperature;humidity
67141;DHT22;54058;52.010;5.546;2023-02-01T00:02:08;6.10;87.40
67141;DHT22;54058;52.010;5.546;2023-02-01T00:04:34;6.10;87.40
67141;DHT22;54058;52.010;5.546;2023-02-01T00:06:59;6.10;87.40
67141;DHT22;54058;52.010;5.546;2023-02-01T00:09:29;6.10;87.10
67141;DHT22;54058;52.010;5.546;2023-02-01T00:11:54;6.10;87.10
67141;DHT22;54058;52.010;5.546;2023-02-01T00:14:20;6.10;87.20
67141;DHT22;54058;52.010;5.546;2023-02-01T00:16:46;6.10;87.10
67141;DHT22;54058;52.010;5.546;2023-02-01T00:19:14;6.10;87.10
67141;DHT22;54058;52.010;5.546;2023-02-01T00:21:40;6.10;87.00
67141;DHT22;54058;52.010;5.546;2023-02-01T00:24:06;6.10;87.40
67141;DHT22;54058;52.010;5.546;2023-02-01T00:26:44;6.10;87.00
67141;DHT22;54058;52.010;5.546;2023-02-01T00:29:15;6.10;86.90
67141;DHT22;54058;52.010;5.546;2023-02-01T00:31:42;6.20;86.80
67141;DHT22;54058;52.010;5.546;2023-02-01T00:34:10;6.20;86.50
67141;DHT22;54058;52.010;5.546;2023-02-01T00:36:37;6.20;86.60
67141;DHT22;54058;52.010;5.546;2023-02-01T00:39:02;6.30;86.80
67141;DHT22;54058;52.010;5.546;2023-02-01T00:41:28;6.30;86.60
67141;DHT22;54058;52.010;5.546;2023-02-01T00:43:54;6.30;86.70
67141;DHT22;54058;52.010;5.546;2023-02-01T00:46:20;6.30;86.80
67141;DHT22;54058;52.010;5.546;2023-02-01T00:48:47;6.30;86.80
67141;DHT22;54058;52.010;5.546;2023-02-01T00:51:15;6.30;86.70
67141;DHT22;54058;52.010;5.546;2023-02-01T00:53:41;6.40;86.80
67141;DHT22;54058;52.010;5.546;2023-02-01T00:56:08;6.40;86.80
67141;DHT22;54058;52.010;5.546;2023-02-01T00:58:34;6.40;86.80
67141;DHT22;54058;52.010;5.546;2023-02-01T01:01:09;6.40;86.70
67141;DHT22;54058;52.010;5.546;2023-02-01T01:03:40;6.40;86.30
67141;DHT22;54058;52.010;5.546;2023-02-01T01:06:08;6.40;86.60
67141;DHT22;54058;52.010;5.546;2023-02-01T01:08:35;6.40;86.40
67141;DHT22;54058;52.010;5.546;2023-02-01T01:11:08;6.40;86.30
67141;DHT22;54058;52.010;5.546;2023-02-01T01:13:35;6.40;86.40
67141;DHT22;54058;52.010;5.546;2023-02-01T01:16:03;6.40;86.40
67141;DHT22;54058;52.010;5.546;2023-02-01T01:18:30;6.40;86.20
67141;DHT22;54058;52.010;5.546;2023-02-01T01:20:55;6.30;86.30
67141;DHT22;54058;52.010;5.546;2023-02-01T01:23:21;6.30;86.50
67141;DHT22;54058;52.010;5.546;2023-02-01T01:25:47;6.30;86.70
67141;DHT22;54058;52.010;5.546;2023-02-01T01:28:13;6.30;86.70
67141;DHT22;54058;52.010;5.546;2023-02-01T01:30:41;6.30;86.70
67141;DHT22;54058;52.010;5.546;2023-02-01T01:33:07;6.30;86.80
67141;DHT22;54058;52.010;5.546;2023-02-01T01:35:35;6.30;86.70
67141;DHT22;54058;52.010;5.546;2023-02-01T01:38:01;6.30;86.80
67141;DHT22;54058;52.010;5.546;2023-02-01T01:40:28;6.30;86.60
67141;DHT22;54058;52.010;5.546;2023-02-01T01:42:55;6.30;86.70
67141;DHT22;54058;52.010;5.546;2023-02-01T01:45:28;6.20;86.70
67141;DHT22;54058;52.010;5.546;2023-02-01T01:50:33;6.20;86.70
67141;DHT22;54058;52.010;5.546;2023-02-01T01:53:02;6.10;86.40
67141;DHT22;54058;52.010;5.546;2023-02-01T01:55:32;6.10;86.60
67141;DHT22;54058;52.010;5.546;2023-02-01T01:58:11;6.10;86.80
67141;DHT22;54058;52.010;5.546;2023-02-01T02:00:37;6.10;86.70
67141;DHT22;54058;52.010;5.546;2023-02-01T02:03:17;6.10;86.70
67141;DHT22;54058;52.010;5.546;2023-02-01T02:05:45;6.10;86.70
67141;DHT22;54058;52.010;5.546;2023-02-01T02:08:12;6.10;86.70
67141;DHT22;54058;52.010;5.546;2023-02-01T02:10:38;6.10;86.50
67141;DHT22;54058;52.010;5.546;2023-02-01T02:13:22;6.10;86.70
67141;DHT22;54058;52.010;5.546;2023-02-01T02:24:43;6.10;85.80
67141;DHT22;54058;52.010;5.546;2023-02-01T02:27:58;6.10;86.30
67141;DHT22;54058;52.010;5.546;2023-02-01T02:30:36;6.20;86.40
67141;DHT22;54058;52.010;5.546;2023-02-01T02:35:49;6.30;86.50
67141;DHT22;54058;52.010;5.546;2023-02-01T02:43:44;6.40;86.30
67141;DHT22;54058;52.010;5.546;2023-02-01T02:46:40;6.40;85.90
67141;DHT22;54058;52.010;5.546;2023-02-01T02:49:29;6.40;86.10
67141;DHT22;54058;52.010;5.546;2023-02-01T02:52:09;6.50;86.20
67141;DHT22;54058;52.010;5.546;2023-02-01T02:54:56;6.50;86.30
67141;DHT22;54058;52.010;5.546;2023-02-01T02:57:36;6.50;86.30
67141;DHT22;54058;52.010;5.546;2023-02-01T03:00:28;6.60;86.40
67141;DHT22;54058;52.010;5.546;2023-02-01T03:03:13;6.60;86.40
67141;DHT22;54058;52.010;5.546;2023-02-01T03:05:57;6.60;86.50
67141;DHT22;54058;52.010;5.546;2023-02-01T03:08:30;6.70;86.30
67141;DHT22;54058;52.010;5.546;2023-02-01T03:11:15;6.80;86.40
67141;DHT22;54058;52.010;5.546;2023-02-01T03:13:45;6.80;86.20
67141;DHT22;54058;52.010;5.546;2023-02-01T03:18:57;6.80;86.40
67141;DHT22;54058;52.010;5.546;2023-02-01T03:23:58;6.90;86.30
67141;DHT22;54058;52.010;5.546;2023-02-01T03:26:26;6.90;86.30
67141;DHT22;54058;52.010;5.546;2023-02-01T03:28:57;6.90;86.40
67141;DHT22;54058;52.010;5.546;2023-02-01T03:31:27;6.90;86.20
67141;DHT22;54058;52.010;5.546;2023-02-01T03:33:53;6.90;86.30
67141;DHT22;54058;52.010;5.546;2023-02-01T03:36:30;6.90;86.30
67141;DHT22;54058;52.010;5.546;2023-02-01T03:39:11;6.90;86.80
67141;DHT22;54058;52.010;5.546;2023-02-01T03:41:45;6.80;85.60
67141;DHT22;54058;52.010;5.546;2023-02-01T03:47:22;6.80;85.90
67141;DHT22;54058;52.010;5.546;2023-02-01T03:50:04;6.80;86.00
67141;DHT22;54058;52.010;5.546;2023-02-01T03:52:44;6.70;86.00
67141;DHT22;54058;52.010;5.546;2023-02-01T03:55:16;6.70;85.80
67141;DHT22;54058;52.010;5.546;2023-02-01T04:00:56;6.70;85.80
67141;DHT22;54058;52.010;5.546;2023-02-01T04:03:23;6.70;85.90
67141;DHT22;54058;52.010;5.546;2023-02-01T04:05:51;6.60;85.90
67141;DHT22;54058;52.010;5.546;2023-02-01T04:08:18;6.60;86.00
67141;DHT22;54058;52.010;5.546;2023-02-01T04:10:44;6.60;86.00
67141;DHT22;54058;52.010;5.546;2023-02-01T04:13:10;6.60;86.00
67141;DHT22;54058;52.010;5.546;2023-02-01T04:15:35;6.60;86.00
67141;DHT22;54058;52.010;5.546;2023-02-01T04:18:01;6.60;86.00
67141;DHT22;54058;52.010;5.546;2023-02-01T04:20:27;6.60;86.00
67141;DHT22;54058;52.010;5.546;2023-02-01T04:22:53;6.60;86.20
67141;DHT22;54058;52.010;5.546;2023-02-01T04:25:19;6.70;86.70
67141;DHT22;54058;52.010;5.546;2023-02-01T04:27:44;6.70;85.90
67141;DHT22;54058;52.010;5.546;2023-02-01T04:30:11;6.70;86.00
67141;DHT22;54058;52.010;5.546;2023-02-01T04:32:37;6.80;86.00
67141;DHT22;54058;52.010;5.546;2023-02-01T04:35:03;6.80;86.20
67141;DHT22;54058;52.010;5.546;2023-02-01T04:37:29;6.80;85.90
67141;DHT22;54058;52.010;5.546;2023-02-01T04:39:55;6.90;86.20
67141;DHT22;54058;52.010;5.546;2023-02-01T04:42:21;6.90;86.20
67141;DHT22;54058;52.010;5.546;2023-02-01T04:44:46;7.00;85.90
67141;DHT22;54058;52.010;5.546;2023-02-01T04:47:12;7.00;86.10
67141;DHT22;54058;52.010;5.546;2023-02-01T04:49:38;7.00;85.90
67141;DHT22;54058;52.010;5.546;2023-02-01T04:52:04;7.10;85.40
67141;DHT22;54058;52.010;5.546;2023-02-01T04:54:29;7.10;85.80
67141;DHT22;54058;52.010;5.546;2023-02-01T04:56:55;7.10;85.90
67141;DHT22;54058;52.010;5.546;2023-02-01T04:59:20;7.10;85.80
67141;DHT22;54058;52.010;5.546;2023-02-01T05:01:46;7.10;85.90
67141;DHT22;54058;52.010;5.546;2023-02-01T05:04:12;7.10;86.00
67141;DHT22;54058;52.010;5.546;2023-02-01T05:06:37;7.10;85.90
67141;DHT22;54058;52.010;5.546;2023-02-01T05:09:03;7.10;85.80
67141;DHT22;54058;52.010;5.546;2023-02-01T05:11:29;7.10;86.30
67141;DHT22;54058;52.010;5.546;2023-02-01T05:14:13;7.10;85.70
67141;DHT22;54058;52.010;5.546;2023-02-01T05:16:38;7.10;85.80
67141;DHT22;54058;52.010;5.546;2023-02-01T05:19:04;7.10;85.90
67141;DHT22;54058;52.010;5.546;2023-02-01T05:21:29;7.10;85.60
67141;DHT22;54058;52.010;5.546;2023-02-01T05:23:55;7.10;85.90
67141;DHT22;54058;52.010;5.546;2023-02-01T05:26:41;7.10;86.00
67141;DHT22;54058;52.010;5.546;2023-02-01T05:29:08;7.10;85.90
67141;DHT22;54058;52.010;5.546;2023-02-01T05:31:34;7.10;85.90
67141;DHT22;54058;52.010;5.546;2023-02-01T05:34:00;7.10;85.80
67141;DHT22;54058;52.010;5.546;2023-02-01T05:36:26;7.10;86.00
67141;DHT22;54058;52.010;5.546;2023-02-01T05:38:51;7.10;86.10
67141;DHT22;54058;52.010;5.546;2023-02-01T05:41:17;7.10;85.70
67141;DHT22;54058;52.010;5.546;2023-02-01T05:43:43;7.10;86.00
67141;DHT22;54058;52.010;5.546;2023-02-01T05:46:08;7.10;85.80
67141;DHT22;54058;52.010;5.546;2023-02-01T05:48:38;7.10;85.80
67141;DHT22;54058;52.010;5.546;2023-02-01T05:51:04;7.10;85.90
67141;DHT22;54058;52.010;5.546;2023-02-01T05:53:29;7.10;85.90
67141;DHT22;54058;52.010;5.546;2023-02-01T05:55:55;7.20;86.00
67141;DHT22;54058;52.010;5.546;2023-02-01T05:58:20;7.20;85.90
67141;DHT22;54058;52.010;5.546;2023-02-01T06:00:46;7.20;86.00
67141;DHT22;54058;52.010;5.546;2023-02-01T06:03:11;7.20;86.20
67141;DHT22;54058;52.010;5.546;2023-02-01T06:05:37;7.20;86.30
67141;DHT22;54058;52.010;5.546;2023-02-01T06:08:03;7.20;85.80
67141;DHT22;54058;52.010;5.546;2023-02-01T06:10:28;7.20;86.10
67141;DHT22;54058;52.010;5.546;2023-02-01T06:12:54;7.20;86.30
67141;DHT22;54058;52.010;5.546;2023-02-01T06:15:20;7.20;86.10
67141;DHT22;54058;52.010;5.546;2023-02-01T06:17:46;7.20;86.10
67141;DHT22;54058;52.010;5.546;2023-02-01T06:20:13;7.20;86.00
67141;DHT22;54058;52.010;5.546;2023-02-01T06:22:40;7.20;86.10
67141;DHT22;54058;52.010;5.546;2023-02-01T06:25:07;7.20;86.30
67141;DHT22;54058;52.010;5.546;2023-02-01T06:27:33;7.20;86.20
67141;DHT22;54058;52.010;5.546;2023-02-01T06:29:58;7.30;86.30
67141;DHT22;54058;52.010;5.546;2023-02-01T06:32:24;7.30;86.20
67141;DHT22;54058;52.010;5.546;2023-02-01T06:34:50;7.30;86.10
67141;DHT22;54058;52.010;5.546;2023-02-01T06:37:18;7.30;86.10
67141;DHT22;54058;52.010;5.546;2023-02-01T06:39:44;7.30;86.20
67141;DHT22;54058;52.010;5.546;2023-02-01T06:42:09;7.20;86.10
67141;DHT22;54058;52.010;5.546;2023-02-01T06:44:35;7.20;86.20
67141;DHT22;54058;52.010;5.546;2023-02-01T06:47:00;7.20;86.30
67141;DHT22;54058;52.010;5.546;2023-02-01T06:49:26;7.20;86.30
67141;DHT22;54058;52.010;5.546;2023-02-01T06:51:52;7.20;86.00
67141;DHT22;54058;52.010;5.546;2023-02-01T06:54:18;7.20;86.20
67141;DHT22;54058;52.010;5.546;2023-02-01T06:56:43;7.10;86.00
67141;DHT22;54058;52.010;5.546;2023-02-01T06:59:10;7.10;86.20
67141;DHT22;54058;52.010;5.546;2023-02-01T07:01:36;7.10;86.10
67141;DHT22;54058;52.010;5.546;2023-02-01T07:04:02;7.00;86.20
67141;DHT22;54058;52.010;5.546;2023-02-01T07:06:27;7.00;86.30
67141;DHT22;54058;52.010;5.546;2023-02-01T07:08:53;7.00;86.30
67141;DHT22;54058;52.010;5.546;2023-02-01T07:11:21;6.90;86.40
67141;DHT22;54058;52.010;5.546;2023-02-01T07:13:47;6.90;86.50
67141;DHT22;54058;52.010;5.546;2023-02-01T07:16:17;6.90;86.40
67141;DHT22;54058;52.010;5.546;2023-02-01T07:18:43;6.90;86.50
67141;DHT22;54058;52.010;5.546;2023-02-01T07:21:08;6.90;86.50
67141;DHT22;54058;52.010;5.546;2023-02-01T07:23:34;6.90;86.60
67141;DHT22;54058;52.010;5.546;2023-02-01T07:26:02;7.00;86.50
67141;DHT22;54058;52.010;5.546;2023-02-01T07:28:30;6.90;86.40
67141;DHT22;54058;52.010;5.546;2023-02-01T07:31:08;7.00;86.10
67141;DHT22;54058;52.010;5.546;2023-02-01T07:33:34;7.00;86.40
67141;DHT22;54058;52.010;5.546;2023-02-01T07:36:04;7.00;86.40
67141;DHT22;54058;52.010;5.546;2023-02-01T07:38:31;7.10;86.30
67141;DHT22;54058;52.010;5.546;2023-02-01T07:41:03;7.10;86.30
67141;DHT22;54058;52.010;5.546;2023-02-01T07:43:30;7.00;86.20
67141;DHT22;54058;52.010;5.546;2023-02-01T07:45:56;7.00;86.20
67141;DHT22;54058;52.010;5.546;2023-02-01T07:48:23;7.00;86.20
67141;DHT22;54058;52.010;5.546;2023-02-01T07:51:00;7.00;86.20
67141;DHT22;54058;52.010;5.546;2023-02-01T07:53:26;7.00;86.10
67141;DHT22;54058;52.010;5.546;2023-02-01T07:55:52;7.00;86.20
67141;DHT22;54058;52.010;5.546;2023-02-01T07:58:17;7.00;86.00
67141;DHT22;54058;52.010;5.546;2023-02-01T08:00:43;7.00;86.00
67141;DHT22;54058;52.010;5.546;2023-02-01T08:03:27;7.00;86.00
67141;DHT22;54058;52.010;5.546;2023-02-01T08:05:56;7.00;85.90
67141;DHT22;54058;52.010;5.546;2023-02-01T08:08:22;7.10;85.90
67141;DHT22;54058;52.010;5.546;2023-02-01T08:10:48;7.10;86.00
67141;DHT22;54058;52.010;5.546;2023-02-01T08:13:19;7.10;85.80
67141;DHT22;54058;52.010;5.546;2023-02-01T08:15:45;7.10;85.80
67141;DHT22;54058;52.010;5.546;2023-02-01T08:18:10;7.10;85.70
67141;DHT22;54058;52.010;5.546;2023-02-01T08:20:36;7.10;85.40
67141;DHT22;54058;52.010;5.546;2023-02-01T08:23:06;7.10;85.50
67141;DHT22;54058;52.010;5.546;2023-02-01T08:25:32;7.20;84.90
67141;DHT22;54058;52.010;5.546;2023-02-01T08:28:00;7.10;85.30
67141;DHT22;54058;52.010;5.546;2023-02-01T08:30:25;7.10;84.80
67141;DHT22;54058;52.010;5.546;2023-02-01T08:32:54;7.10;85.50
67141;DHT22;54058;52.010;5.546;2023-02-01T08:35:19;7.20;85.70
67141;DHT22;54058;52.010;5.546;2023-02-01T08:37:45;7.20;85.40
67141;DHT22;54058;52.010;5.546;2023-02-01T08:40:11;7.20;85.60
67141;DHT22;54058;52.010;5.546;2023-02-01T08:42:37;7.30;85.80
67141;DHT22;54058;52.010;5.546;2023-02-01T08:45:22;7.40;86.00
67141;DHT22;54058;52.010;5.546;2023-02-01T08:47:52;7.50;85.60
67141;DHT22;54058;52.010;5.546;2023-02-01T08:50:19;7.50;85.60
67141;DHT22;54058;52.010;5.546;2023-02-01T08:52:45;7.60;85.90
67141;DHT22;54058;52.010;5.546;2023-02-01T08:55:12;7.60;86.00
67141;DHT22;54058;52.010;5.546;2023-02-01T08:57:38;7.60;86.20
67141;DHT22;54058;52.010;5.546;2023-02-01T09:00:07;7.70;86.20
67141;DHT22;54058;52.010;5.546;2023-02-01T09:02:33;7.80;85.70
67141;DHT22;54058;52.010;5.546;2023-02-01T09:04:59;7.80;85.80
67141;DHT22;54058;52.010;5.546;2023-02-01T09:07:25;7.90;86.10
67141;DHT22;54058;52.010;5.546;2023-02-01T09:09:50;7.90;85.80
67141;DHT22;54058;52.010;5.546;2023-02-01T09:12:16;7.90;85.90
67141;DHT22;54058;52.010;5.546;2023-02-01T09:14:42;7.90;86.70
67141;DHT22;54058;52.010;5.546;2023-02-01T09:17:08;7.90;85.90
67141;DHT22;54058;52.010;5.546;2023-02-01T09:19:34;7.90;85.90
67141;DHT22;54058;52.010;5.546;2023-02-01T09:21:59;8.00;85.80
67141;DHT22;54058;52.010;5.546;2023-02-01T09:24:25;8.00;85.20
67141;DHT22;54058;52.010;5.546;2023-02-01T09:26:51;8.10;85.80
67141;DHT22;54058;52.010;5.546;2023-02-01T09:29:16;8.30;85.80
67141;DHT22;54058;52.010;5.546;2023-02-01T09:31:42;8.40;86.00
67141;DHT22;54058;52.010;5.546;2023-02-01T09:34:08;8.40;85.20
67141;DHT22;54058;52.010;5.546;2023-02-01T09:36:34;8.40;84.90
67141;DHT22;54058;52.010;5.546;2023-02-01T09:39:00;8.50;85.70
67141;DHT22;54058;52.010;5.546;2023-02-01T09:44:41;8.70;83.70
67141;DHT22;54058;52.010;5.546;2023-02-01T09:47:14;8.70;85.10
67141;DHT22;54058;52.010;5.546;2023-02-01T09:55:16;8.80;84.30
67141;DHT22;54058;52.010;5.546;2023-02-01T09:58:31;8.70;84.60
67141;DHT22;54058;52.010;5.546;2023-02-01T10:00:59;8.70;84.20
67141;DHT22;54058;52.010;5.546;2023-02-01T10:03:34;8.70;85.00
67141;DHT22;54058;52.010;5.546;2023-02-01T10:11:42;8.70;84.70
67141;DHT22;54058;52.010;5.546;2023-02-01T10:20:30;8.50;85.10
67141;DHT22;54058;52.010;5.546;2023-02-01T10:28:11;8.60;85.00
67141;DHT22;54058;52.010;5.546;2023-02-01T10:30:44;8.60;85.30
67141;DHT22;54058;52.010;5.546;2023-02-01T10:33:32;8.60;85.50
67141;DHT22;54058;52.010;5.546;2023-02-01T10:36:13;8.50;84.80
67141;DHT22;54058;52.010;5.546;2023-02-01T10:38:47;8.40;85.60
67141;DHT22;54058;52.010;5.546;2023-02-01T10:41:14;8.30;85.80
67141;DHT22;54058;52.010;5.546;2023-02-01T10:43:41;8.20;86.30
67141;DHT22;54058;52.010;5.546;2023-02-01T10:46:07;8.10;86.50
67141;DHT22;54058;52.010;5.546;2023-02-01T10:48:33;8.00;86.60
67141;DHT22;54058;52.010;5.546;2023-02-01T10:51:16;8.00;86.90
67141;DHT22;54058;52.010;5.546;2023-02-01T10:53:57;7.90;86.90
67141;DHT22;54058;52.010;5.546;2023-02-01T10:56:26;7.90;87.00
67141;DHT22;54058;52.010;5.546;2023-02-01T10:59:03;7.90;87.20
67141;DHT22;54058;52.010;5.546;2023-02-01T11:01:41;7.90;86.90
67141;DHT22;54058;52.010;5.546;2023-02-01T11:04:11;8.00;86.90
67141;DHT22;54058;52.010;5.546;2023-02-01T11:06:40;8.00;86.90
67141;DHT22;54058;52.010;5.546;2023-02-01T11:14:26;8.00;86.20
67141;DHT22;54058;52.010;5.546;2023-02-01T11:16:58;8.00;85.80
67141;DHT22;54058;52.010;5.546;2023-02-01T11:19:25;8.00;85.20
67141;DHT22;54058;52.010;5.546;2023-02-01T11:21:52;8.10;85.70
67141;DHT22;54058;52.010;5.546;2023-02-01T11:24:24;8.10;85.50
67141;DHT22;54058;52.010;5.546;2023-02-01T11:26:51;8.20;85.50
67141;DHT22;54058;52.010;5.546;2023-02-01T11:29:19;8.20;85.30
67141;DHT22;54058;52.010;5.546;2023-02-01T11:31:50;8.20;85.50
67141;DHT22;54058;52.010;5.546;2023-02-01T11:34:18;8.20;85.50
67141;DHT22;54058;52.010;5.546;2023-02-01T11:36:47;8.20;85.60
67141;DHT22;54058;52.010;5.546;2023-02-01T11:39:33;8.20;85.70
67141;DHT22;54058;52.010;5.546;2023-02-01T11:42:15;8.20;85.90
67141;DHT22;54058;52.010;5.546;2023-02-01T11:44:43;8.10;86.00
67141;DHT22;54058;52.010;5.546;2023-02-01T11:49:44;8.20;86.30
67141;DHT22;54058;52.010;5.546;2023-02-01T12:06:14;8.40;85.60
67141;DHT22;54058;52.010;5.546;2023-02-01T12:17:07;8.80;85.20
67141;DHT22;54058;52.010;5.546;2023-02-01T12:36:49;9.20;84.60
67141;DHT22;54058;52.010;5.546;2023-02-01T12:39:39;9.20;84.40
67141;DHT22;54058;52.010;5.546;2023-02-01T12:42:18;9.20;84.30
67141;DHT22;54058;52.010;5.546;2023-02-01T12:44:55;9.20;84.50
67141;DHT22;54058;52.010;5.546;2023-02-01T12:50:20;9.10;84.80
67141;DHT22;54058;52.010;5.546;2023-02-01T12:52:51;9.10;84.40
67141;DHT22;54058;52.010;5.546;2023-02-01T12:55:32;9.10;81.70
67141;DHT22;54058;52.010;5.546;2023-02-01T12:58:20;9.10;84.40
67141;DHT22;54058;52.010;5.546;2023-02-01T13:00:54;9.10;84.50
67141;DHT22;54058;52.010;5.546;2023-02-01T13:03:54;9.00;84.30
67141;DHT22;54058;52.010;5.546;2023-02-01T13:06:58;9.00;83.50
67141;DHT22;54058;52.010;5.546;2023-02-01T13:09:29;9.00;84.70
67141;DHT22;54058;52.010;5.546;2023-02-01T13:12:00;9.00;84.60
67141;DHT22;54058;52.010;5.546;2023-02-01T13:14:55;9.10;84.70
67141;DHT22;54058;52.010;5.546;2023-02-01T13:17:30;9.10;84.50
67141;DHT22;54058;52.010;5.546;2023-02-01T13:23:07;9.10;83.00
67141;DHT22;54058;52.010;5.546;2023-02-01T13:25:40;9.10;83.50
67141;DHT22;54058;52.010;5.546;2023-02-01T13:28:18;9.00;83.90
67141;DHT22;54058;52.010;5.546;2023-02-01T13:39:45;9.00;83.70
67141;DHT22;54058;52.010;5.546;2023-02-01T13:44:45;9.00;83.70
67141;DHT22;54058;52.010;5.546;2023-02-01T13:47:25;9.00;84.20
67141;DHT22;54058;52.010;5.546;2023-02-01T13:49:53;9.00;83.90
67141;DHT22;54058;52.010;5.546;2023-02-01T13:52:38;9.00;84.30
67141;DHT22;54058;52.010;5.546;2023-02-01T13:57:49;9.00;83.60
67141;DHT22;54058;52.010;5.546;2023-02-01T14:10:57;9.10;83.90
67141;DHT22;54058;52.010;5.546;2023-02-01T14:13:33;9.10;83.10
67141;DHT22;54058;52.010;5.546;2023-02-01T14:21:27;9.20;83.80
67141;DHT22;54058;52.010;5.546;2023-02-01T14:32:06;9.10;83.90
67141;DHT22;54058;52.010;5.546;2023-02-01T14:44:54;9.10;82.70
67141;DHT22;54058;52.010;5.546;2023-02-01T14:50:48;9.10;83.80
67141;DHT22;54058;52.010;5.546;2023-02-01T15:01:18;9.00;83.00
67141;DHT22;54058;52.010;5.546;2023-02-01T15:03:59;9.00;83.70
67141;DHT22;54058;52.010;5.546;2023-02-01T15:06:36;9.00;83.40
67141;DHT22;54058;52.010;5.546;2023-02-01T15:09:12;9.00;84.00
67141;DHT22;54058;52.010;5.546;2023-02-01T15:14:24;9.00;82.30
67141;DHT22;54058;52.010;5.546;2023-02-01T15:16:50;9.00;83.70
67141;DHT22;54058;52.010;5.546;2023-02-01T15:19:21;9.00;83.50
67141;DHT22;54058;52.010;5.546;2023-02-01T15:21:52;9.00;84.00
67141;DHT22;54058;52.010;5.546;2023-02-01T15:24:26;9.00;83.70
67141;DHT22;54058;52.010;5.546;2023-02-01T15:26:54;9.00;83.90
67141;DHT22;54058;52.010;5.546;2023-02-01T15:29:22;9.00;84.00
67141;DHT22;54058;52.010;5.546;2023-02-01T15:31:51;9.00;83.80
67141;DHT22;54058;52.010;5.546;2023-02-01T15:34:19;9.00;84.00
67141;DHT22;54058;52.010;5.546;2023-02-01T15:36:46;9.00;84.00
67141;DHT22;54058;52.010;5.546;2023-02-01T15:39:38;9.00;84.10
67141;DHT22;54058;52.010;5.546;2023-02-01T15:42:23;9.00;83.20
67141;DHT22;54058;52.010;5.546;2023-02-01T15:44:49;8.90;84.00
67141;DHT22;54058;52.010;5.546;2023-02-01T15:49:45;9.00;84.30
67141;DHT22;54058;52.010;5.546;2023-02-01T15:52:28;9.00;84.30
67141;DHT22;54058;52.010;5.546;2023-02-01T15:55:00;9.00;84.30
67141;DHT22;54058;52.010;5.546;2023-02-01T15:57:30;9.00;84.40
67141;DHT22;54058;52.010;5.546;2023-02-01T16:00:23;9.00;84.50
67141;DHT22;54058;52.010;5.546;2023-02-01T16:02:58;9.00;84.10
67141;DHT22;54058;52.010;5.546;2023-02-01T16:05:35;9.00;84.30
67141;DHT22;54058;52.010;5.546;2023-02-01T16:08:15;8.90;84.00
67141;DHT22;54058;52.010;5.546;2023-02-01T16:10:46;8.90;84.20
67141;DHT22;54058;52.010;5.546;2023-02-01T16:13:13;8.90;84.20
67141;DHT22;54058;52.010;5.546;2023-02-01T16:15:39;8.90;84.40
67141;DHT22;54058;52.010;5.546;2023-02-01T16:18:06;9.00;84.60
67141;DHT22;54058;52.010;5.546;2023-02-01T16:20:36;9.00;84.60
67141;DHT22;54058;52.010;5.546;2023-02-01T16:23:03;8.90;84.50
67141;DHT22;54058;52.010;5.546;2023-02-01T16:25:29;8.90;84.40
67141;DHT22;54058;52.010;5.546;2023-02-01T16:27:54;8.90;84.30
67141;DHT22;54058;52.010;5.546;2023-02-01T16:30:20;8.90;84.30
67141;DHT22;54058;52.010;5.546;2023-02-01T16:32:57;8.90;84.30
67141;DHT22;54058;52.010;5.546;2023-02-01T16:35:31;8.90;84.30
67141;DHT22;54058;52.010;5.546;2023-02-01T16:38:04;8.90;84.30
67141;DHT22;54058;52.010;5.546;2023-02-01T16:40:37;8.90;84.40
67141;DHT22;54058;52.010;5.546;2023-02-01T16:43:26;8.90;84.40
67141;DHT22;54058;52.010;5.546;2023-02-01T16:45:53;8.90;84.40
67141;DHT22;54058;52.010;5.546;2023-02-01T16:48:49;8.90;84.30
67141;DHT22;54058;52.010;5.546;2023-02-01T16:51:16;8.90;84.10
67141;DHT22;54058;52.010;5.546;2023-02-01T16:53:42;9.00;84.30
67141;DHT22;54058;52.010;5.546;2023-02-01T16:56:23;9.00;84.30
67141;DHT22;54058;52.010;5.546;2023-02-01T16:58:49;9.00;84.10
67141;DHT22;54058;52.010;5.546;2023-02-01T17:01:17;9.00;84.20
67141;DHT22;54058;52.010;5.546;2023-02-01T17:03:44;9.00;84.20
67141;DHT22;54058;52.010;5.546;2023-02-01T17:06:14;9.00;84.20
67141;DHT22;54058;52.010;5.546;2023-02-01T17:08:46;9.10;84.20
67141;DHT22;54058;52.010;5.546;2023-02-01T17:11:13;9.00;84.00
67141;DHT22;54058;52.010;5.546;2023-02-01T17:13:39;9.00;84.10
67141;DHT22;54058;52.010;5.546;2023-02-01T17:16:28;9.10;84.00
67141;DHT22;54058;52.010;5.546;2023-02-01T17:19:05;9.10;83.90
67141;DHT22;54058;52.010;5.546;2023-02-01T17:21:40;9.10;83.70
67141;DHT22;54058;52.010;5.546;2023-02-01T17:24:06;9.10;83.80
67141;DHT22;54058;52.010;5.546;2023-02-01T17:26:31;9.10;83.90
67141;DHT22;54058;52.010;5.546;2023-02-01T17:28:57;9.10;84.00
67141;DHT22;54058;52.010;5.546;2023-02-01T17:31:23;9.10;83.80
67141;DHT22;54058;52.010;5.546;2023-02-01T17:33:48;9.10;84.00
67141;DHT22;54058;52.010;5.546;2023-02-01T17:36:16;9.10;84.10
67141;DHT22;54058;52.010;5.546;2023-02-01T17:38:43;9.10;84.10
67141;DHT22;54058;52.010;5.546;2023-02-01T17:41:13;9.00;83.70
67141;DHT22;54058;52.010;5.546;2023-02-01T17:43:39;9.10;83.80
67141;DHT22;54058;52.010;5.546;2023-02-01T17:46:13;9.10;83.70
67141;DHT22;54058;52.010;5.546;2023-02-01T17:48:39;9.10;83.90
67141;DHT22;54058;52.010;5.546;2023-02-01T17:51:16;9.10;83.80
67141;DHT22;54058;52.010;5.546;2023-02-01T17:53:42;9.10;83.90
67141;DHT22;54058;52.010;5.546;2023-02-01T17:56:19;9.10;83.90
67141;DHT22;54058;52.010;5.546;2023-02-01T17:58:45;9.10;83.90
67141;DHT22;54058;52.010;5.546;2023-02-01T18:01:13;9.10;83.90
67141;DHT22;54058;52.010;5.546;2023-02-01T18:03:39;9.10;83.70
67141;DHT22;54058;52.010;5.546;2023-02-01T18:06:09;9.10;83.70
67141;DHT22;54058;52.010;5.546;2023-02-01T18:08:35;9.10;83.70
67141;DHT22;54058;52.010;5.546;2023-02-01T18:11:02;9.20;83.70
67141;DHT22;54058;52.010;5.546;2023-02-01T18:13:28;9.20;83.60
67141;DHT22;54058;52.010;5.546;2023-02-01T18:15:56;9.20;83.50
67141;DHT22;54058;52.010;5.546;2023-02-01T18:18:23;9.20;83.50
67141;DHT22;54058;52.010;5.546;2023-02-01T18:20:49;9.20;83.60
67141;DHT22;54058;52.010;5.546;2023-02-01T18:23:17;9.20;83.60
67141;DHT22;54058;52.010;5.546;2023-02-01T18:25:43;9.20;83.60
67141;DHT22;54058;52.010;5.546;2023-02-01T18:28:12;9.20;83.70
67141;DHT22;54058;52.010;5.546;2023-02-01T18:30:38;9.20;83.90
67141;DHT22;54058;52.010;5.546;2023-02-01T18:33:04;9.20;83.90
67141;DHT22;54058;52.010;5.546;2023-02-01T18:35:30;9.20;84.00
67141;DHT22;54058;52.010;5.546;2023-02-01T18:37:57;9.10;84.10
67141;DHT22;54058;52.010;5.546;2023-02-01T18:40:25;9.10;84.20
67141;DHT22;54058;52.010;5.546;2023-02-01T18:42:51;9.10;84.30
67141;DHT22;54058;52.010;5.546;2023-02-01T18:45:50;9.10;84.30
67141;DHT22;54058;52.010;5.546;2023-02-01T18:48:17;9.10;84.20
67141;DHT22;54058;52.010;5.546;2023-02-01T18:50:44;9.10;84.30
67141;DHT22;54058;52.010;5.546;2023-02-01T18:53:18;9.10;84.30
67141;DHT22;54058;52.010;5.546;2023-02-01T18:55:48;9.10;84.20
67141;DHT22;54058;52.010;5.546;2023-02-01T18:58:15;9.10;84.30
67141;DHT22;54058;52.010;5.546;2023-02-01T19:00:42;9.10;84.30